Time;durP1;ratioP1;P1;durP2;ratioP2;P2;SDS_P1;SDS_P2;PMS_P1;PMS_P2;Temp;Humidity;BMP_temperature;BMP_pressure;BME280_temperature;BME280_humidity;BME280_pressure;Samples;Min_cycle;Max_cycle;Signal;HPM_P1;HPM_P2
2021/12/28 00:01:32;;;;;;;17.70;13.33;;;;;;;0.77;76.83;98554.34;5026411;23;20294;-82
2021/12/28 00:04:22;;;;;;;21.63;14.10;;;;;;;0.77;77.45;98562.25;4988575;23;20228;-82
2021/12/28 00:07:40;;;;;;;20.17;13.63;;;;;;;0.71;76.87;98552.44;5003797;28;20266;-82
2021/12/28 00:10:41;;;;;;;18.63;13.13;;;;;;;0.79;77.36;98559.44;5035191;23;20234;-82
2021/12/28 00:13:41;;;;;;;17.77;13.37;;;;;;;0.75;77.04;98566.06;5087536;23;20249;-83
2021/12/28 00:20:24;;;;;;;21.13;15.20;;;;;;;0.66;77.15;98551.34;4993465;23;20227;-81
2021/12/28 00:23:31;;;;;;;21.27;15.73;;;;;;;0.70;77.99;98560.53;5012419;28;20297;-83
2021/12/28 00:26:49;;;;;;;21.00;15.67;;;;;;;0.60;77.59;98570.53;5030839;23;20235;-81
2021/12/28 00:29:47;;;;;;;20.13;14.20;;;;;;;0.60;78.16;98571.34;4976473;29;20256;-82
2021/12/28 00:32:39;;;;;;;21.10;13.33;;;;;;;0.52;77.25;98568.78;4974732;29;20245;-82
2021/12/28 00:35:39;;;;;;;19.30;12.83;;;;;;;0.59;77.60;98571.53;4977931;29;20173;-82
2021/12/28 00:38:53;;;;;;;17.33;13.07;;;;;;;0.54;77.55;98574.72;4976968;23;20193;-82
2021/12/28 00:41:51;;;;;;;17.30;12.60;;;;;;;0.41;77.51;98556.06;5102436;23;20227;-82
2021/12/28 00:44:29;;;;;;;20.37;13.90;;;;;;;0.48;78.01;98559.59;5031238;23;20206;-82
2021/12/28 00:47:51;;;;;;;18.50;12.77;;;;;;;0.64;76.81;98574.44;5014957;28;20231;-83
2021/12/28 00:51:06;;;;;;;19.97;13.13;;;;;;;0.61;77.61;98575.59;4994985;28;20230;-82
2021/12/28 00:54:23;;;;;;;18.13;13.10;;;;;;;0.65;77.50;98574.25;5191630;23;20253;-82
2021/12/28 00:58:10;;;;;;;20.50;13.67;;;;;;;0.53;78.04;98572.25;4999643;23;20215;-82
2021/12/28 01:01:02;;;;;;;16.53;12.23;;;;;;;0.43;78.50;98556.69;5106511;23;20295;-82
2021/12/28 01:03:42;;;;;;;18.57;13.17;;;;;;;0.58;78.68;98577.78;5031470;23;20246;-82
2021/12/28 01:06:58;;;;;;;18.00;13.30;;;;;;;0.70;78.48;98581.63;5004067;28;20229;-83
2021/12/28 01:09:45;;;;;;;17.67;13.07;;;;;;;0.74;79.03;98593.44;5101747;23;20205;-82
2021/12/28 01:12:30;;;;;;;19.77;14.10;;;;;;;0.75;78.32;98608.22;5030802;23;20215;-82
2021/12/28 01:15:38;;;;;;;18.67;13.87;;;;;;;0.73;78.66;98594.44;5022453;23;20224;-82
2021/12/28 01:18:29;;;;;;;19.20;13.80;;;;;;;0.78;79.27;98602.63;5015910;28;20274;-82
2021/12/28 01:21:30;;;;;;;19.50;13.60;;;;;;;0.79;79.07;98599.78;5029899;23;20227;-82
2021/12/28 01:24:39;;;;;;;19.50;13.83;;;;;;;0.86;79.42;98608.63;4969399;28;20235;-82
2021/12/28 01:27:52;;;;;;;18.87;13.50;;;;;;;0.86;79.25;98613.88;5012672;28;20211;-82
2021/12/28 01:30:24;;;;;;;17.93;13.60;;;;;;;0.79;79.51;98599.00;4999191;28;20255;-82
2021/12/28 01:33:01;;;;;;;16.50;13.10;;;;;;;0.89;79.72;98608.25;5107662;22;20231;-82
2021/12/28 01:36:05;;;;;;;16.23;12.47;;;;;;;0.93;80.58;98613.16;5104627;23;20278;-82
2021/12/28 01:38:52;;;;;;;16.50;12.83;;;;;;;0.96;79.75;98610.16;5015885;28;20188;-82
2021/12/28 01:41:40;;;;;;;17.97;12.87;;;;;;;0.96;79.91;98612.78;5002388;28;20207;-82
2021/12/28 01:45:05;;;;;;;18.27;13.63;;;;;;;0.96;80.04;98605.69;5013324;23;20303;-82
2021/12/28 01:48:18;;;;;;;17.63;13.03;;;;;;;0.97;79.82;98602.06;5022341;23;20236;-82
2021/12/28 01:50:52;;;;;;;15.80;11.80;;;;;;;0.98;80.81;98616.88;5011774;23;20243;-82
2021/12/28 01:53:45;;;;;;;18.27;13.03;;;;;;;0.99;80.38;98607.13;5020163;28;20230;-82
2021/12/28 01:56:48;;;;;;;18.50;13.53;;;;;;;1.01;80.56;98605.16;5030366;23;20233;-82
2021/12/28 02:00:10;;;;;;;18.27;13.47;;;;;;;1.02;80.45;98614.72;5013887;23;20250;-82
2021/12/28 02:02:56;;;;;;;17.57;12.63;;;;;;;0.96;80.64;98610.97;5100434;22;20232;-82
2021/12/28 02:05:55;;;;;;;16.70;12.73;;;;;;;0.95;80.46;98611.97;5084829;23;20294;-82
2021/12/28 02:09:03;;;;;;;16.77;12.27;;;;;;;1.00;81.40;98619.34;5025845;23;20220;-82
2021/12/28 02:11:43;;;;;;;17.60;13.37;;;;;;;0.80;80.88;98598.78;5022568;23;20283;-82
2021/12/28 02:14:58;;;;;;;15.50;12.57;;;;;;;0.96;80.55;98625.97;5022820;23;20239;-82
2021/12/28 02:18:04;;;;;;;17.13;13.13;;;;;;;0.94;80.50;98628.78;5005403;28;20227;-82
2021/12/28 02:21:02;;;;;;;19.07;13.30;;;;;;;0.68;80.80;98596.78;5038173;23;20234;-82
2021/12/28 02:24:06;;;;;;;18.43;12.87;;;;;;;0.88;80.46;98629.53;5176960;23;20235;-82
2021/12/28 02:27:34;;;;;;;17.00;12.57;;;;;;;0.82;80.08;98631.06;5033193;28;20229;-82
2021/12/28 02:30:56;;;;;;;16.13;12.30;;;;;;;0.84;81.06;98644.09;5035720;28;20230;-82
2021/12/28 02:33:51;;;;;;;18.47;13.23;;;;;;;0.73;80.38;98624.25;5037452;23;20294;-82
2021/12/28 02:36:32;;;;;;;17.83;13.03;;;;;;;0.59;80.95;98614.53;5037948;23;20238;-83
2021/12/28 02:39:54;;;;;;;19.13;13.93;;;;;;;0.75;81.33;98643.34;5007281;23;20223;-81
2021/12/28 02:42:56;;;;;;;18.50;13.30;;;;;;;0.75;80.85;98635.44;4994929;28;20223;-82
2021/12/28 02:46:11;;;;;;;18.20;12.80;;;;;;;0.79;80.54;98628.78;5007466;23;20283;-82
2021/12/28 02:49:25;;;;;;;17.33;12.90;;;;;;;0.59;81.11;98598.72;4989020;23;20251;-81
2021/12/28 02:52:41;;;;;;;18.60;13.70;;;;;;;0.80;80.93;98617.25;5004400;23;20381;-82
2021/12/28 02:55:47;;;;;;;16.97;12.90;;;;;;;0.85;80.87;98600.88;5135895;23;20215;-81
2021/12/28 02:59:05;;;;;;;18.37;12.90;;;;;;;0.88;80.39;98580.25;4962209;29;20201;-82
2021/12/28 03:01:41;;;;;;;18.73;13.13;;;;;;;0.87;80.72;98583.88;4992402;23;20223;-82
2021/12/28 03:04:38;;;;;;;17.37;12.80;;;;;;;0.79;81.04;98577.91;5029146;23;20243;31
2021/12/28 03:07:40;;;;;;;15.93;12.47;;;;;;;0.75;81.32;98581.88;5020190;23;20211;-82
2021/12/28 03:10:52;;;;;;;18.87;13.20;;;;;;;0.84;82.05;98588.72;5021540;23;20299;-82
2021/12/28 03:13:42;;;;;;;16.63;13.03;;;;;;;0.88;81.33;98582.91;5029233;23;20270;-81
2021/12/28 03:16:59;;;;;;;17.90;13.33;;;;;;;0.91;82.16;98576.41;5019909;23;20230;-82
2021/12/28 03:19:46;;;;;;;16.43;12.37;;;;;;;0.83;82.02;98579.16;4999132;28;20227;-82
2021/12/28 03:22:38;;;;;;;16.07;11.97;;;;;;;0.83;82.75;98579.16;5021039;23;20253;-82
2021/12/28 03:25:22;;;;;;;15.40;11.43;;;;;;;0.88;82.51;98582.06;5005073;23;20230;-82
2021/12/28 03:28:10;;;;;;;15.77;11.60;;;;;;;0.85;81.74;98563.97;5022605;23;20223;-82
2021/12/28 03:31:15;;;;;;;15.80;11.83;;;;;;;0.92;82.42;98582.50;5015123;28;20214;-82
2021/12/28 03:34:37;;;;;;;14.90;10.93;;;;;;;0.86;82.16;98597.25;5006086;28;20271;-82
2021/12/28 03:37:47;;;;;;;15.43;11.53;;;;;;;0.85;82.45;98587.69;5077390;23;20228;-82
2021/12/28 03:40:37;;;;;;;14.50;11.67;;;;;;;0.87;82.54;98593.63;4994653;28;20169;-82
2021/12/28 03:43:33;;;;;;;13.13;10.43;;;;;;;0.85;82.01;98580.59;5086411;23;20204;-81
2021/12/28 03:46:29;;;;;;;13.77;10.80;;;;;;;0.79;82.90;98583.16;4984126;23;20224;-82
2021/12/28 03:49:04;;;;;;;12.20;10.03;;;;;;;0.75;82.20;98581.88;5014852;28;20222;-81
2021/12/28 03:52:07;;;;;;;12.90;9.73;;;;;;;0.61;82.29;98565.06;5022407;23;20238;-82
2021/12/28 03:54:35;;;;;;;13.67;10.10;;;;;;;0.77;82.53;98590.44;5009611;23;20240;-82
2021/12/28 03:57:23;;;;;;;13.27;10.00;;;;;;;0.69;83.12;98590.53;5017885;23;20207;-82
2021/12/28 03:59:58;;;;;;;12.20;9.63;;;;;;;0.62;82.59;98573.78;5021613;28;20207;-82
2021/12/28 04:02:56;;;;;;;14.37;10.77;;;;;;;0.76;82.70;98589.59;5113632;23;20185;-82
2021/12/28 04:05:51;;;;;;;13.33;10.57;;;;;;;0.77;82.89;98596.53;5013555;23;20211;-82
2021/12/28 04:09:58;;;;;;;15.40;10.23;;;;;;;0.74;82.57;98594.25;5021197;23;20294;-82
2021/12/28 04:12:42;;;;;;;14.07;11.17;;;;;;;0.78;82.95;98594.72;5035654;23;20199;-82
2021/12/28 04:15:49;;;;;;;15.70;11.50;;;;;;;0.79;82.25;98604.25;5028191;23;20209;-82
2021/12/28 04:18:45;;;;;;;15.03;10.97;;;;;;;0.79;82.68;98597.16;5021462;28;20195;-82
2021/12/28 04:21:56;;;;;;;14.07;11.07;;;;;;;0.78;82.30;98606.06;5019297;23;20223;-82
2021/12/28 04:25:17;;;;;;;13.50;10.40;;;;;;;0.78;82.22;98618.44;5016459;28;20266;-82
2021/12/28 04:28:23;;;;;;;15.53;10.57;;;;;;;0.77;82.33;98611.53;5040810;23;20234;-82
2021/12/28 04:31:28;;;;;;;13.70;10.07;;;;;;;0.65;82.55;98594.53;5025350;23;20211;-82
2021/12/28 04:34:31;;;;;;;14.27;10.50;;;;;;;0.67;82.76;98601.25;5039640;23;20210;-81
2021/12/28 04:37:27;;;;;;;14.27;10.20;;;;;;;0.70;83.46;98598.25;5017413;28;20233;-82
2021/12/28 04:40:24;;;;;;;17.47;12.20;;;;;;;0.74;82.32;98594.25;5016021;28;20187;-82
2021/12/28 04:44:00;;;;;;;18.40;12.33;;;;;;;0.71;82.74;98599.06;5022272;23;20234;-82
2021/12/28 04:47:00;;;;;;;17.47;12.20;;;;;;;0.68;82.64;98592.34;4982135;28;20250;-82
2021/12/28 04:50:07;;;;;;;16.87;11.43;;;;;;;0.75;82.47;98601.16;5020559;23;20231;-82
2021/12/28 04:53:36;;;;;;;15.77;11.23;;;;;;;0.74;83.04;98607.44;5013547;28;20234;-83
2021/12/28 04:56:55;;;;;;;17.17;12.20;;;;;;;0.72;83.91;98613.88;5026999;23;20247;-82
2021/12/28 05:01:02;;;;;;;19.10;12.63;;;;;;;0.70;84.15;98608.78;5023871;23;20239;31
2021/12/28 05:04:00;;;;;;;18.10;12.67;;;;;;;0.77;83.48;98607.06;5171153;23;20204;-82
2021/12/28 05:07:48;;;;;;;18.63;12.80;;;;;;;0.77;83.61;98611.53;5028589;23;20243;-82
2021/12/28 05:15:01;;;;;;;20.00;13.13;;;;;;;0.81;85.18;98616.25;5104513;23;20273;-82
2021/12/28 05:18:16;;;;;;;20.83;12.20;;;;;;;0.86;84.08;98613.88;5057732;23;20235;-82
2021/12/28 05:21:38;;;;;;;19.80;13.10;;;;;;;0.85;83.75;98620.16;5007034;23;20247;-82
2021/12/28 05:24:37;;;;;;;19.37;13.57;;;;;;;0.89;84.07;98616.16;5014919;28;20223;-82
2021/12/28 05:27:17;;;;;;;17.90;12.57;;;;;;;0.87;83.80;98625.25;5040469;23;20243;-82
2021/12/28 05:30:22;;;;;;;17.67;12.77;;;;;;;0.87;83.19;98614.72;5164832;23;20239;-82
2021/12/28 05:33:36;;;;;;;19.83;13.30;;;;;;;0.84;84.04;98613.25;5030037;23;20235;-82
2021/12/28 05:36:47;;;;;;;20.33;13.90;;;;;;;0.80;83.43;98604.06;5013229;23;20260;-82
2021/12/28 05:43:08;;;;;;;19.10;13.53;;;;;;;0.81;84.23;98618.88;4959448;23;20232;-82
2021/12/28 05:46:50;;;;;;;20.60;14.13;;;;;;;0.85;83.62;98620.16;4941712;23;20233;-81
2021/12/28 05:50:21;;;;;;;22.90;13.80;;;;;;;0.80;83.34;98600.59;5017152;23;20231;-82
2021/12/28 05:53:34;;;;;;;21.63;14.60;;;;;;;0.81;83.30;98618.88;5021410;23;20250;-81
2021/12/28 05:56:30;;;;;;;23.93;14.93;;;;;;;0.67;84.17;98593.34;5023987;23;20588;-82
2021/12/28 05:59:43;;;;;;;22.57;14.43;;;;;;;0.82;83.20;98619.72;5107345;23;20223;-82
2021/12/28 06:03:02;;;;;;;23.97;14.47;;;;;;;0.83;83.79;98619.53;4987536;28;20208;-82
2021/12/28 06:06:06;;;;;;;27.47;16.40;;;;;;;0.88;83.64;98614.53;5009710;23;20246;-82
2021/12/28 06:12:28;;;;;;;28.67;16.63;;;;;;;0.79;83.56;98612.19;4985273;23;20227;-82
2021/12/28 06:16:03;;;;;;;30.20;16.67;;;;;;;0.79;83.72;98634.06;5020288;23;20234;-82
2021/12/28 06:19:26;;;;;;;27.33;16.73;;;;;;;0.80;84.13;98629.59;5021433;23;20247;-82
2021/12/28 06:22:29;;;;;;;28.90;17.37;;;;;;;0.83;84.49;98640.63;5021109;23;20231;-82
2021/12/28 06:26:19;;;;;;;30.67;18.93;;;;;;;0.86;84.42;98629.72;5018477;23;20323;-82
2021/12/28 06:29:27;;;;;;;35.63;18.30;;;;;;;0.82;84.38;98630.25;5013353;28;20223;-82
2021/12/28 06:32:40;;;;;;;33.53;19.70;;;;;;;0.81;84.40;98616.25;5035640;23;20221;-82
2021/12/28 06:36:19;;;;;;;33.67;18.40;;;;;;;0.79;84.51;98628.78;5026945;23;20235;-82
2021/12/28 06:39:37;;;;;;;34.00;19.70;;;;;;;0.83;84.58;98622.19;5012830;28;20215;-82
2021/12/28 06:42:49;;;;;;;37.23;19.57;;;;;;;0.79;85.40;98612.97;5043441;23;20275;-82
2021/12/28 06:45:41;;;;;;;36.27;19.67;;;;;;;0.82;85.02;98622.34;5014453;23;20243;-82
2021/12/28 06:48:56;;;;;;;38.13;20.50;;;;;;;0.78;85.29;98619.25;5021466;23;20219;-82
2021/12/28 06:52:12;;;;;;;38.40;20.57;;;;;;;0.83;85.31;98602.91;5004250;28;20223;-82
2021/12/28 06:55:19;;;;;;;36.03;20.07;;;;;;;0.89;84.65;98604.78;5036021;23;20306;-82
2021/12/28 06:58:40;;;;;;;38.07;21.03;;;;;;;0.73;84.53;98587.34;5013630;23;20231;-81
2021/12/28 07:01:30;;;;;;;41.17;21.83;;;;;;;0.83;85.42;98609.00;4991486;28;20232;-83
2021/12/28 07:04:34;;;;;;;39.43;21.23;;;;;;;0.80;84.94;98604.06;4994079;28;20251;-82
2021/12/28 07:07:41;;;;;;;42.33;22.27;;;;;;;0.85;84.64;98603.50;5104057;23;20227;-82
2021/12/28 07:11:17;;;;;;;42.13;21.30;;;;;;;0.91;84.80;98605.44;5111826;23;20212;-82
2021/12/28 07:14:29;;;;;;;44.23;21.83;;;;;;;0.93;84.69;98605.25;5013394;28;20223;-82
2021/12/28 07:17:58;;;;;;;46.07;22.30;;;;;;;0.89;85.66;98615.31;5014691;28;20168;-82
2021/12/28 07:21:04;;;;;;;46.40;23.33;;;;;;;0.91;85.70;98609.88;5102576;23;20251;-83
2021/12/28 07:24:41;;;;;;;46.73;22.77;;;;;;;0.86;85.62;98594.59;5113947;23;20235;-82
2021/12/28 07:28:06;;;;;;;54.37;23.53;;;;;;;0.99;84.98;98600.03;5004775;28;20230;-83
2021/12/28 07:30:53;;;;;;;45.50;23.30;;;;;;;0.98;84.71;98585.22;5013178;23;20332;-82
2021/12/28 07:34:12;;;;;;;50.83;23.63;;;;;;;1.03;84.56;98582.03;5013468;28;20211;-83
2021/12/28 07:36:51;;;;;;;48.33;24.00;;;;;;;0.82;85.52;98577.53;5011002;23;20227;-83
2021/12/28 07:39:53;;;;;;;54.07;25.53;;;;;;;0.99;85.15;98602.69;5028267;23;20254;-82
2021/12/28 07:46:42;;;;;;;53.50;24.23;;;;;;;1.24;85.24;98632.22;5000322;23;20223;-82
2021/12/28 07:50:29;;;;;;;53.40;24.83;;;;;;;1.33;85.42;98642.50;5013010;28;20246;-82
2021/12/28 07:53:34;;;;;;;58.87;25.80;;;;;;;1.11;84.82;98617.06;5033854;23;20273;-82
2021/12/28 07:56:17;;;;;;;48.87;24.53;;;;;;;1.30;85.29;98626.22;4992608;23;20196;31
2021/12/28 07:59:45;;;;;;;50.40;25.00;;;;;;;1.49;85.44;98624.81;4953899;29;20233;-83
2021/12/28 08:03:44;;;;;;;45.60;24.13;;;;;;;1.56;84.65;98623.06;5103837;23;20231;-82
2021/12/28 08:07:07;;;;;;;50.17;24.07;;;;;;;1.60;83.48;98621.66;5026725;23;20254;-82
2021/12/28 08:10:23;;;;;;;46.00;22.63;;;;;;;1.45;84.15;98618.25;4996456;28;20231;-82
2021/12/28 08:13:44;;;;;;;49.10;24.67;;;;;;;1.65;84.45;98645.69;5020952;23;20243;-82
2021/12/28 08:16:53;;;;;;;55.43;25.80;;;;;;;1.59;84.81;98641.16;5020998;23;20215;-82
2021/12/28 08:19:59;;;;;;;45.77;22.53;;;;;;;1.71;84.22;98651.06;5001815;28;20231;-82
2021/12/28 08:23:20;;;;;;;46.83;23.47;;;;;;;1.73;84.07;98651.69;5035941;23;20231;-82
2021/12/28 08:26:45;;;;;;;46.77;22.60;;;;;;;1.68;83.26;98640.84;5043987;23;20325;-82
2021/12/28 08:29:47;;;;;;;51.63;25.27;;;;;;;1.72;83.42;98631.59;5020872;23;20206;-83
2021/12/28 08:32:47;;;;;;;44.23;22.77;;;;;;;1.81;83.02;98634.91;4983764;28;20238;-82
2021/12/28 08:35:50;;;;;;;43.70;22.77;;;;;;;1.89;83.29;98633.97;5027373;23;20266;-82
2021/12/28 08:39:32;;;;;;;42.80;22.53;;;;;;;2.01;82.19;98632.44;5027660;23;20231;-82
2021/12/28 08:42:08;;;;;;;42.60;23.10;;;;;;;1.96;82.05;98622.44;5023308;23;20176;-82
2021/12/28 08:45:11;;;;;;;43.73;23.03;;;;;;;2.04;81.91;98632.09;5051776;23;20227;-82
2021/12/28 08:48:48;;;;;;;42.63;21.47;;;;;;;1.82;81.23;98598.75;5017297;23;20223;-82
2021/12/28 08:51:57;;;;;;;44.13;21.40;;;;;;;2.01;81.94;98630.63;5033903;23;20239;-82
2021/12/28 08:54:43;;;;;;;41.33;21.17;;;;;;;1.93;81.10;98624.66;5017123;28;20272;-82
2021/12/28 08:57:55;;;;;;;41.63;21.13;;;;;;;1.89;81.77;98620.75;5031161;23;20299;-82
2021/12/28 09:01:40;;;;;;;37.17;19.77;;;;;;;1.93;81.80;98617.53;5030933;23;20227;-82
2021/12/28 09:05:24;;;;;;;40.37;20.00;;;;;;;2.05;81.65;98626.59;5272228;23;20241;-82
2021/12/28 09:08:27;;;;;;;38.30;20.30;;;;;;;2.13;81.46;98630.94;5031438;23;20227;-82
2021/12/28 09:11:51;;;;;;;39.03;20.57;;;;;;;2.24;81.66;98624.34;5027534;23;20234;-82
2021/12/28 09:14:21;;;;;;;41.10;21.43;;;;;;;2.31;81.74;98610.16;4995225;28;20224;-82
2021/12/28 09:17:46;;;;;;;38.50;20.37;;;;;;;2.38;80.68;98605.72;5138792;23;20235;-83
2021/12/28 09:24:10;;;;;;;43.07;21.53;;;;;;;2.42;80.20;98604.34;1205103;26;20299;-82
2021/12/28 09:27:08;;;;;;;35.60;19.17;;;;;;;2.27;80.25;98579.00;5005751;23;20276;-82
2021/12/28 09:30:48;;;;;;;41.57;20.73;;;;;;;2.46;80.01;98599.50;5023868;23;20234;-82
2021/12/28 09:37:23;;;;;;;44.83;21.47;;;;;;;2.47;79.40;98577.34;5062807;23;20233;-82
2021/12/28 09:40:10;;;;;;;41.87;20.67;;;;;;;2.56;79.74;98586.75;5011613;23;20243;-82
2021/12/28 09:43:14;;;;;;;42.47;20.23;;;;;;;2.46;79.86;98573.06;5020572;23;20226;-82
2021/12/28 09:46:21;;;;;;;41.87;21.00;;;;;;;2.50;79.66;98567.19;5015068;28;20235;-82
2021/12/28 09:49:18;;;;;;;39.83;19.87;;;;;;;2.63;80.00;98572.56;5054858;22;20294;-81
2021/12/28 09:52:31;;;;;;;39.53;20.30;;;;;;;2.78;80.16;98568.97;5020911;23;20316;-81
2021/12/28 09:55:14;;;;;;;40.23;20.27;;;;;;;2.83;79.27;98562.09;4991400;28;20223;-82
2021/12/28 09:57:48;;;;;;;42.33;20.17;;;;;;;2.85;78.22;98546.00;4978969;28;20212;-82
2021/12/28 10:00:51;;;;;;;40.33;20.73;;;;;;;3.01;78.87;98572.13;4954998;28;20216;-82
2021/12/28 10:03:30;;;;;;;39.10;19.43;;;;;;;3.02;78.26;98555.25;5006033;23;20204;-82
2021/12/28 10:06:43;;;;;;;37.30;19.40;;;;;;;3.16;78.21;98562.22;4985391;28;20251;-82
2021/12/28 10:09:35;;;;;;;41.20;20.57;;;;;;;3.20;77.81;98552.88;5032796;23;20227;-82
2021/12/28 10:12:16;;;;;;;39.67;20.20;;;;;;;3.18;77.75;98559.38;4982239;28;20203;-82
2021/12/28 10:15:25;;;;;;;37.87;18.93;;;;;;;3.05;77.83;98542.44;5061573;22;20245;-81
2021/12/28 10:18:16;;;;;;;34.23;17.97;;;;;;;2.97;77.29;98539.97;4983413;28;20204;-82
2021/12/28 10:21:08;;;;;;;34.03;17.73;;;;;;;3.01;78.32;98557.06;5001543;23;20231;-82
2021/12/28 10:23:48;;;;;;;31.47;17.03;;;;;;;2.84;77.78;98529.34;4985611;23;20236;-82
2021/12/28 10:26:18;;;;;;;34.07;18.37;;;;;;;2.93;77.83;98522.03;5002814;23;20299;-82
2021/12/28 10:28:48;;;;;;;32.80;17.47;;;;;;;3.11;77.08;98538.19;4960551;28;20232;-82
2021/12/28 10:31:23;;;;;;;28.73;15.70;;;;;;;2.98;77.17;98525.72;4994176;23;20219;-82
2021/12/28 10:34:02;;;;;;;28.77;15.33;;;;;;;3.09;76.45;98540.19;5013222;28;20239;-82
2021/12/28 10:36:34;;;;;;;29.43;15.13;;;;;;;3.14;76.57;98537.78;4993405;28;20187;-82
2021/12/28 10:39:06;;;;;;;29.27;15.20;;;;;;;3.18;76.52;98539.00;4977762;28;20231;-82
2021/12/28 10:41:59;;;;;;;29.10;15.83;;;;;;;3.16;77.08;98540.25;5011380;28;20299;-82
2021/12/28 10:44:56;;;;;;;28.13;15.37;;;;;;;3.09;77.12;98535.72;5005648;28;20235;-82
2021/12/28 10:47:35;;;;;;;24.43;14.50;;;;;;;3.10;77.55;98536.56;4984239;28;20214;-82
2021/12/28 10:50:43;;;;;;;25.10;13.90;;;;;;;3.07;76.35;98515.78;4979366;28;20214;-81
2021/12/28 10:53:38;;;;;;;22.67;13.43;;;;;;;3.15;77.26;98520.06;5010547;28;20276;-82
2021/12/28 10:56:10;;;;;;;22.43;13.13;;;;;;;3.16;76.18;98524.34;5011984;28;20198;-82
2021/12/28 10:58:48;;;;;;;22.37;13.10;;;;;;;3.19;76.52;98513.34;4993081;28;20187;-82
2021/12/28 11:01:21;;;;;;;20.83;12.53;;;;;;;3.14;76.57;98510.50;5061219;23;20255;-82
2021/12/28 11:04:00;;;;;;;21.00;12.63;;;;;;;3.20;76.58;98501.75;4955295;28;20301;-82
2021/12/28 11:06:43;;;;;;;19.47;11.83;;;;;;;3.16;77.02;98500.53;5162725;23;20322;-82
2021/12/28 11:09:51;;;;;;;21.93;12.73;;;;;;;2.96;76.57;98479.31;5034399;23;20243;-82
2021/12/28 11:12:50;;;;;;;21.13;12.53;;;;;;;3.09;76.70;98481.97;5012889;23;20235;-83
2021/12/28 11:15:45;;;;;;;20.23;12.70;;;;;;;3.21;77.00;98498.94;5063818;23;20246;-83
2021/12/28 11:18:30;;;;;;;20.63;12.57;;;;;;;3.22;76.62;98495.25;4992834;28;20242;-82
2021/12/28 11:21:41;;;;;;;19.50;11.73;;;;;;;3.17;76.15;98479.19;4993570;28;20219;-82
2021/12/28 11:25:02;;;;;;;18.40;11.37;;;;;;;3.16;76.47;98466.94;5016572;23;20237;-82
2021/12/28 11:27:44;;;;;;;17.33;11.27;;;;;;;3.14;76.30;98471.63;5015989;28;20211;-82
2021/12/28 11:30:47;;;;;;;19.97;11.93;;;;;;;3.22;76.52;98474.06;5175091;23;20235;-82
2021/12/28 11:33:51;;;;;;;19.37;11.43;;;;;;;3.24;76.29;98468.59;5031922;23;20227;-81
2021/12/28 11:36:43;;;;;;;17.13;10.70;;;;;;;2.93;76.47;98432.91;4993863;23;20255;-82
2021/12/28 11:39:41;;;;;;;19.70;11.67;;;;;;;3.17;76.24;98454.53;4994721;28;20654;-82
2021/12/28 11:42:09;;;;;;;19.00;11.90;;;;;;;3.00;76.95;98452.25;5009695;28;20247;-82
2021/12/28 11:44:40;;;;;;;20.57;12.23;;;;;;;3.05;77.02;98462.22;4991964;28;20235;-82
2021/12/28 11:47:17;;;;;;;18.42;12.27;;;;;;;2.86;77.01;98433.88;4943205;23;1316508;-83
2021/12/28 11:50:11;;;;;;;20.97;12.57;;;;;;;2.63;76.20;98405.94;4973141;23;20224;-82
2021/12/28 11:52:40;;;;;;;18.37;11.43;;;;;;;2.44;76.65;98400.56;5011918;23;20285;-82
2021/12/28 11:55:40;;;;;;;21.10;11.70;;;;;;;2.67;77.35;98419.59;5036884;28;20201;-82
2021/12/28 11:58:12;;;;;;;17.93;11.60;;;;;;;2.77;77.13;98425.31;5037427;28;20217;-83
2021/12/28 12:00:57;;;;;;;20.90;12.77;;;;;;;2.73;77.80;98426.72;5054801;23;20219;-82
2021/12/28 12:03:39;;;;;;;19.77;11.30;;;;;;;2.63;77.95;98418.34;5039488;23;20192;-82
2021/12/28 12:07:04;;;;;;;17.23;11.33;;;;;;;2.56;78.20;98409.59;4971318;28;20227;-82
2021/12/28 12:10:03;;;;;;;15.60;10.20;;;;;;;2.46;78.15;98417.91;5004255;23;20231;-82
2021/12/28 12:12:38;;;;;;;19.80;11.30;;;;;;;2.28;78.34;98382.44;5009902;28;20226;-82
2021/12/28 12:15:21;;;;;;;16.47;9.90;;;;;;;2.36;79.09;98393.66;5010355;28;20249;-82
2021/12/28 12:18:00;;;;;;;16.43;10.00;;;;;;;2.34;79.08;98398.31;4978415;28;20299;-82
2021/12/28 12:24:39;;;;;;;16.87;10.07;;;;;;;2.27;79.84;98394.84;5006875;23;20235;-82
2021/12/28 12:28:49;;;;;;;16.23;10.47;;;;;;;2.33;79.76;98401.97;5050599;23;20246;-82
2021/12/28 12:31:41;;;;;;;16.33;10.10;;;;;;;2.12;79.86;98371.19;5026282;23;20222;-81
2021/12/28 12:34:37;;;;;;;17.67;10.63;;;;;;;2.21;79.33;98399.06;5000077;23;20223;-81
2021/12/28 12:37:08;;;;;;;16.30;9.87;;;;;;;2.17;80.06;98397.00;4994482;23;20231;-82
2021/12/28 12:39:41;;;;;;;17.37;10.53;;;;;;;1.90;80.19;98371.47;4998664;28;20211;-82
2021/12/28 12:42:12;;;;;;;17.23;10.37;;;;;;;2.09;80.08;98392.72;5024811;23;20238;-81
2021/12/28 12:44:56;;;;;;;18.00;10.20;;;;;;;2.00;80.67;98395.72;5006759;23;20254;-82
2021/12/28 12:47:53;;;;;;;21.23;13.43;;;;;;;2.05;80.91;98378.25;4995382;23;20239;-82
2021/12/28 12:50:38;;;;;;;18.80;11.67;;;;;;;1.90;80.89;98377.56;5040349;23;20235;-82
2021/12/28 12:53:46;;;;;;;20.60;14.90;;;;;;;2.11;81.12;98387.22;4992123;23;20276;-82
2021/12/28 12:57:02;;;;;;;22.57;12.17;;;;;;;1.84;81.06;98351.13;4998660;28;20204;-82
2021/12/28 12:59:53;;;;;;;19.83;12.83;;;;;;;2.03;80.41;98392.66;5006009;23;20178;-82
2021/12/28 13:02:26;;;;;;;20.03;13.60;;;;;;;1.99;80.98;98386.97;5007858;23;20246;-82
2021/12/28 13:05:23;;;;;;;19.93;10.87;;;;;;;1.93;81.58;98368.44;5036274;28;20226;-82
2021/12/28 13:08:14;;;;;;;17.03;10.73;;;;;;;2.03;80.79;98379.47;5039741;23;20227;-82
2021/12/28 13:10:56;;;;;;;20.83;14.20;;;;;;;2.08;81.23;98384.97;5250406;23;20227;-82
2021/12/28 13:13:38;;;;;;;17.40;12.30;;;;;;;2.06;81.30;98371.13;4977259;23;20239;-82
2021/12/28 13:16:16;;;;;;;18.23;11.13;;;;;;;2.07;81.75;98370.94;4962662;28;20223;-83
2021/12/28 13:18:43;;;;;;;18.93;11.50;;;;;;;1.96;81.30;98357.50;4988895;28;20245;-82
2021/12/28 13:21:11;;;;;;;19.40;12.17;;;;;;;1.96;81.23;98362.78;4989562;28;20227;-82
2021/12/28 13:23:42;;;;;;;19.63;11.87;;;;;;;1.91;81.55;98357.25;4990576;28;20223;-83
2021/12/28 13:26:11;;;;;;;19.57;11.43;;;;;;;1.93;81.35;98340.19;4991862;28;20290;-82
2021/12/28 13:28:39;;;;;;;19.03;11.43;;;;;;;1.82;81.30;98342.59;4976291;28;20262;-81
2021/12/28 13:31:39;;;;;;;19.57;12.03;;;;;;;1.84;81.77;98348.47;5019022;23;20221;-82
2021/12/28 13:35:02;;;;;;;18.23;11.63;;;;;;;1.70;82.58;98339.66;5023876;22;20246;-82
2021/12/28 13:41:40;;;;;;;19.40;11.67;;;;;;;1.61;82.97;98325.81;5044048;23;20246;-81
2021/12/28 13:44:32;;;;;;;20.13;12.60;;;;;;;1.56;83.52;98336.13;4989990;23;20203;-81
2021/12/28 13:47:13;;;;;;;20.93;12.90;;;;;;;1.44;84.15;98321.03;5190684;23;20258;-82
2021/12/28 13:50:46;;;;;;;19.77;12.43;;;;;;;1.44;84.75;98356.16;5025900;23;20231;-81
2021/12/28 13:54:05;;;;;;;21.60;12.43;;;;;;;1.41;84.23;98355.69;4996571;23;20211;-82
2021/12/28 13:57:28;;;;;;;22.40;12.40;;;;;;;1.46;84.37;98350.66;5026836;23;20223;-82
2021/12/28 14:01:10;;;;;;;22.70;12.77;;;;;;;1.35;84.33;98330.09;5031431;23;20246;-82
2021/12/28 14:04:44;;;;;;;20.37;11.53;;;;;;;1.25;84.35;98310.16;5081887;23;20207;-82
2021/12/28 14:08:07;;;;;;;21.33;12.23;;;;;;;1.32;85.29;98318.91;4998220;23;20250;-82
2021/12/28 14:11:53;;;;;;;19.07;11.40;;;;;;;1.25;84.89;98311.97;5027273;23;20219;-82
2021/12/28 14:15:28;;;;;;;18.60;11.60;;;;;;;1.27;85.80;98305.47;4999271;28;20212;-82
2021/12/28 14:18:29;;;;;;;20.50;11.87;;;;;;;1.21;86.02;98321.28;5056959;23;20221;-82
2021/12/28 14:21:53;;;;;;;18.00;10.90;;;;;;;1.31;86.12;98316.44;5004807;28;20192;-82
2021/12/28 14:24:49;;;;;;;22.30;12.10;;;;;;;1.20;85.87;98309.09;5019806;28;20278;-82
2021/12/28 14:28:02;;;;;;;22.40;12.67;;;;;;;1.25;86.55;98319.88;5019414;23;20190;-82
2021/12/28 14:31:22;;;;;;;21.93;12.13;;;;;;;1.18;86.12;98313.72;5028012;23;20234;-81
2021/12/28 14:34:39;;;;;;;23.83;12.73;;;;;;;1.17;86.41;98307.63;5116435;23;20223;-81
2021/12/28 14:37:52;;;;;;;22.77;12.70;;;;;;;1.12;86.15;98314.50;4990643;23;20204;-81
2021/12/28 14:40:56;;;;;;;20.67;12.33;;;;;;;1.13;86.54;98331.94;5197508;23;20186;-82